sensor_id;sensor_type;location;lat;lon;timestamp;P1;durP1;ratioP1;P2;durP2;ratioP2
7128;SDS011;3606;52.930;8.644;2023-05-07T00:01:48;21.13;;;13.87;;
7128;SDS011;3606;52.930;8.644;2023-05-07T00:04:13;16.30;;;13.47;;
7128;SDS011;3606;52.930;8.644;2023-05-07T00:06:39;21.93;;;14.17;;
7128;SDS011;3606;52.930;8.644;2023-05-07T00:09:05;16.97;;;12.80;;
7128;SDS011;3606;52.930;8.644;2023-05-07T00:11:31;21.07;;;14.20;;
7128;SDS011;3606;52.930;8.644;2023-05-07T00:13:58;19.27;;;13.40;;
7128;SDS011;3606;52.930;8.644;2023-05-07T00:16:23;17.87;;;13.20;;
7128;SDS011;3606;52.930;8.644;2023-05-07T00:18:49;15.10;;;12.20;;
7128;SDS011;3606;52.930;8.644;2023-05-07T00:21:15;21.30;;;13.50;;
7128;SDS011;3606;52.930;8.644;2023-05-07T00:23:41;17.47;;;13.03;;
7128;SDS011;3606;52.930;8.644;2023-05-07T00:26:06;19.70;;;13.20;;
7128;SDS011;3606;52.930;8.644;2023-05-07T00:28:32;18.00;;;12.80;;
7128;SDS011;3606;52.930;8.644;2023-05-07T00:30:57;17.57;;;13.27;;
7128;SDS011;3606;52.930;8.644;2023-05-07T00:33:23;17.63;;;12.43;;
7128;SDS011;3606;52.930;8.644;2023-05-07T00:35:48;19.43;;;13.30;;
7128;SDS011;3606;52.930;8.644;2023-05-07T00:38:15;18.33;;;12.20;;
7128;SDS011;3606;52.930;8.644;2023-05-07T00:40:40;14.07;;;11.33;;
7128;SDS011;3606;52.930;8.644;2023-05-07T00:43:06;16.50;;;11.33;;
7128;SDS011;3606;52.930;8.644;2023-05-07T00:45:32;15.57;;;11.67;;
7128;SDS011;3606;52.930;8.644;2023-05-07T00:48:01;15.50;;;11.33;;
7128;SDS011;3606;52.930;8.644;2023-05-07T00:50:28;17.23;;;11.83;;
7128;SDS011;3606;52.930;8.644;2023-05-07T00:52:54;17.00;;;12.90;;
7128;SDS011;3606;52.930;8.644;2023-05-07T00:55:21;16.47;;;12.17;;
7128;SDS011;3606;52.930;8.644;2023-05-07T00:57:47;17.77;;;12.90;;
7128;SDS011;3606;52.930;8.644;2023-05-07T01:00:15;18.93;;;12.47;;
7128;SDS011;3606;52.930;8.644;2023-05-07T01:02:41;18.10;;;12.63;;
7128;SDS011;3606;52.930;8.644;2023-05-07T01:05:07;17.50;;;12.63;;
7128;SDS011;3606;52.930;8.644;2023-05-07T01:07:34;17.43;;;13.47;;
7128;SDS011;3606;52.930;8.644;2023-05-07T01:10:02;17.63;;;12.70;;
7128;SDS011;3606;52.930;8.644;2023-05-07T01:12:28;16.33;;;12.47;;
7128;SDS011;3606;52.930;8.644;2023-05-07T01:14:55;20.10;;;12.90;;
7128;SDS011;3606;52.930;8.644;2023-05-07T01:17:22;16.57;;;11.93;;
7128;SDS011;3606;52.930;8.644;2023-05-07T01:19:48;17.97;;;12.13;;
7128;SDS011;3606;52.930;8.644;2023-05-07T01:22:14;18.33;;;12.17;;
7128;SDS011;3606;52.930;8.644;2023-05-07T01:24:41;17.93;;;12.60;;
7128;SDS011;3606;52.930;8.644;2023-05-07T01:27:08;15.67;;;12.10;;
7128;SDS011;3606;52.930;8.644;2023-05-07T01:29:33;18.33;;;11.37;;
7128;SDS011;3606;52.930;8.644;2023-05-07T01:31:59;14.40;;;11.23;;
7128;SDS011;3606;52.930;8.644;2023-05-07T01:34:30;16.77;;;11.43;;
7128;SDS011;3606;52.930;8.644;2023-05-07T01:36:58;17.17;;;12.27;;
7128;SDS011;3606;52.930;8.644;2023-05-07T01:39:24;17.67;;;12.33;;
7128;SDS011;3606;52.930;8.644;2023-05-07T01:41:52;16.33;;;11.07;;
7128;SDS011;3606;52.930;8.644;2023-05-07T01:44:21;14.50;;;12.00;;
7128;SDS011;3606;52.930;8.644;2023-05-07T01:46:47;18.00;;;12.07;;
7128;SDS011;3606;52.930;8.644;2023-05-07T01:49:14;14.97;;;12.30;;
7128;SDS011;3606;52.930;8.644;2023-05-07T01:51:40;16.07;;;11.80;;
7128;SDS011;3606;52.930;8.644;2023-05-07T01:54:06;15.43;;;12.23;;
7128;SDS011;3606;52.930;8.644;2023-05-07T01:56:33;17.33;;;11.63;;
7128;SDS011;3606;52.930;8.644;2023-05-07T01:58:58;18.70;;;12.73;;
7128;SDS011;3606;52.930;8.644;2023-05-07T02:01:24;15.80;;;12.27;;
7128;SDS011;3606;52.930;8.644;2023-05-07T02:03:50;18.17;;;12.97;;
7128;SDS011;3606;52.930;8.644;2023-05-07T02:06:15;19.60;;;12.37;;
7128;SDS011;3606;52.930;8.644;2023-05-07T02:08:41;21.20;;;12.77;;
7128;SDS011;3606;52.930;8.644;2023-05-07T02:11:06;17.13;;;12.17;;
7128;SDS011;3606;52.930;8.644;2023-05-07T02:13:32;16.60;;;12.57;;
7128;SDS011;3606;52.930;8.644;2023-05-07T02:15:59;19.97;;;12.97;;
7128;SDS011;3606;52.930;8.644;2023-05-07T02:18:25;18.60;;;13.07;;
7128;SDS011;3606;52.930;8.644;2023-05-07T02:20:51;18.20;;;12.57;;
7128;SDS011;3606;52.930;8.644;2023-05-07T02:23:16;16.07;;;12.10;;
7128;SDS011;3606;52.930;8.644;2023-05-07T02:25:42;17.27;;;13.03;;
7128;SDS011;3606;52.930;8.644;2023-05-07T02:28:07;18.37;;;12.73;;
7128;SDS011;3606;52.930;8.644;2023-05-07T02:30:33;18.20;;;13.17;;
7128;SDS011;3606;52.930;8.644;2023-05-07T02:32:58;17.80;;;12.30;;
7128;SDS011;3606;52.930;8.644;2023-05-07T02:35:24;18.83;;;13.03;;
7128;SDS011;3606;52.930;8.644;2023-05-07T02:37:50;18.37;;;12.13;;
7128;SDS011;3606;52.930;8.644;2023-05-07T02:40:16;19.87;;;12.83;;
7128;SDS011;3606;52.930;8.644;2023-05-07T02:42:42;17.20;;;11.47;;
7128;SDS011;3606;52.930;8.644;2023-05-07T02:45:07;17.97;;;12.77;;
7128;SDS011;3606;52.930;8.644;2023-05-07T02:47:34;15.50;;;12.63;;
7128;SDS011;3606;52.930;8.644;2023-05-07T02:49:59;17.00;;;11.90;;
7128;SDS011;3606;52.930;8.644;2023-05-07T02:52:25;18.77;;;11.77;;
7128;SDS011;3606;52.930;8.644;2023-05-07T02:54:51;19.67;;;13.33;;
7128;SDS011;3606;52.930;8.644;2023-05-07T02:57:16;19.07;;;13.43;;
7128;SDS011;3606;52.930;8.644;2023-05-07T02:59:42;19.33;;;13.33;;
7128;SDS011;3606;52.930;8.644;2023-05-07T03:02:08;18.27;;;13.27;;
7128;SDS011;3606;52.930;8.644;2023-05-07T03:04:33;15.97;;;12.13;;
7128;SDS011;3606;52.930;8.644;2023-05-07T03:06:59;19.70;;;13.07;;
7128;SDS011;3606;52.930;8.644;2023-05-07T03:09:25;20.83;;;13.33;;
7128;SDS011;3606;52.930;8.644;2023-05-07T03:11:51;20.20;;;13.30;;
7128;SDS011;3606;52.930;8.644;2023-05-07T03:14:16;18.50;;;13.87;;
7128;SDS011;3606;52.930;8.644;2023-05-07T03:16:42;16.77;;;11.70;;
7128;SDS011;3606;52.930;8.644;2023-05-07T03:19:07;21.27;;;13.27;;
7128;SDS011;3606;52.930;8.644;2023-05-07T03:21:33;20.33;;;14.13;;
7128;SDS011;3606;52.930;8.644;2023-05-07T03:23:59;19.53;;;13.33;;
7128;SDS011;3606;52.930;8.644;2023-05-07T03:26:25;21.63;;;14.10;;
7128;SDS011;3606;52.930;8.644;2023-05-07T03:28:51;19.13;;;13.77;;
7128;SDS011;3606;52.930;8.644;2023-05-07T03:31:17;21.67;;;14.37;;
7128;SDS011;3606;52.930;8.644;2023-05-07T03:33:55;21.80;;;13.20;;
7128;SDS011;3606;52.930;8.644;2023-05-07T03:36:22;20.00;;;13.23;;
7128;SDS011;3606;52.930;8.644;2023-05-07T03:38:48;22.90;;;14.47;;
7128;SDS011;3606;52.930;8.644;2023-05-07T03:41:14;23.57;;;14.60;;
7128;SDS011;3606;52.930;8.644;2023-05-07T03:43:40;22.23;;;13.50;;
7128;SDS011;3606;52.930;8.644;2023-05-07T03:46:06;21.67;;;14.13;;
7128;SDS011;3606;52.930;8.644;2023-05-07T03:48:31;19.73;;;13.47;;
7128;SDS011;3606;52.930;8.644;2023-05-07T03:50:57;20.50;;;13.83;;
7128;SDS011;3606;52.930;8.644;2023-05-07T03:53:23;23.47;;;14.50;;
7128;SDS011;3606;52.930;8.644;2023-05-07T03:55:49;21.77;;;14.67;;
7128;SDS011;3606;52.930;8.644;2023-05-07T03:58:14;21.03;;;14.63;;
7128;SDS011;3606;52.930;8.644;2023-05-07T04:00:40;21.83;;;14.80;;
7128;SDS011;3606;52.930;8.644;2023-05-07T04:03:07;25.70;;;15.53;;
7128;SDS011;3606;52.930;8.644;2023-05-07T04:05:32;24.07;;;15.90;;
7128;SDS011;3606;52.930;8.644;2023-05-07T04:07:58;23.77;;;15.33;;
7128;SDS011;3606;52.930;8.644;2023-05-07T04:10:24;23.27;;;15.60;;
7128;SDS011;3606;52.930;8.644;2023-05-07T04:12:50;22.87;;;14.77;;
7128;SDS011;3606;52.930;8.644;2023-05-07T04:15:16;23.90;;;15.73;;
7128;SDS011;3606;52.930;8.644;2023-05-07T04:17:41;26.70;;;15.43;;
7128;SDS011;3606;52.930;8.644;2023-05-07T04:20:12;20.20;;;14.37;;
7128;SDS011;3606;52.930;8.644;2023-05-07T04:22:39;21.10;;;14.17;;
7128;SDS011;3606;52.930;8.644;2023-05-07T04:25:05;18.80;;;14.13;;
7128;SDS011;3606;52.930;8.644;2023-05-07T04:27:31;21.60;;;15.67;;
7128;SDS011;3606;52.930;8.644;2023-05-07T04:29:57;20.00;;;14.70;;
7128;SDS011;3606;52.930;8.644;2023-05-07T04:32:23;21.40;;;14.93;;
7128;SDS011;3606;52.930;8.644;2023-05-07T04:34:49;22.53;;;15.33;;
7128;SDS011;3606;52.930;8.644;2023-05-07T04:37:15;21.50;;;14.33;;
7128;SDS011;3606;52.930;8.644;2023-05-07T04:39:41;19.37;;;13.53;;
7128;SDS011;3606;52.930;8.644;2023-05-07T04:42:06;23.97;;;15.20;;
7128;SDS011;3606;52.930;8.644;2023-05-07T04:44:34;17.87;;;13.47;;
7128;SDS011;3606;52.930;8.644;2023-05-07T04:47:00;19.83;;;14.23;;
7128;SDS011;3606;52.930;8.644;2023-05-07T04:49:25;21.37;;;13.80;;
7128;SDS011;3606;52.930;8.644;2023-05-07T04:51:51;19.60;;;13.67;;
7128;SDS011;3606;52.930;8.644;2023-05-07T04:54:17;20.83;;;14.10;;
7128;SDS011;3606;52.930;8.644;2023-05-07T04:56:42;20.97;;;13.53;;
7128;SDS011;3606;52.930;8.644;2023-05-07T04:59:08;22.27;;;13.47;;
7128;SDS011;3606;52.930;8.644;2023-05-07T05:01:34;17.67;;;13.50;;
7128;SDS011;3606;52.930;8.644;2023-05-07T05:03:59;15.67;;;11.63;;
7128;SDS011;3606;52.930;8.644;2023-05-07T05:06:25;19.27;;;12.83;;
7128;SDS011;3606;52.930;8.644;2023-05-07T05:08:51;16.83;;;12.70;;
7128;SDS011;3606;52.930;8.644;2023-05-07T05:11:16;16.93;;;12.07;;
7128;SDS011;3606;52.930;8.644;2023-05-07T05:13:42;14.90;;;11.03;;
7128;SDS011;3606;52.930;8.644;2023-05-07T05:16:07;15.77;;;10.97;;
7128;SDS011;3606;52.930;8.644;2023-05-07T05:18:33;13.53;;;10.60;;
7128;SDS011;3606;52.930;8.644;2023-05-07T05:20:59;17.50;;;11.63;;
7128;SDS011;3606;52.930;8.644;2023-05-07T05:23:25;14.93;;;10.70;;
7128;SDS011;3606;52.930;8.644;2023-05-07T05:25:54;15.90;;;10.73;;
7128;SDS011;3606;52.930;8.644;2023-05-07T05:28:23;14.00;;;10.23;;
7128;SDS011;3606;52.930;8.644;2023-05-07T05:30:49;13.70;;;11.17;;
7128;SDS011;3606;52.930;8.644;2023-05-07T05:33:15;11.97;;;9.97;;
7128;SDS011;3606;52.930;8.644;2023-05-07T05:35:41;12.00;;;9.77;;
7128;SDS011;3606;52.930;8.644;2023-05-07T05:38:07;12.67;;;10.23;;
7128;SDS011;3606;52.930;8.644;2023-05-07T05:40:32;13.27;;;10.47;;
7128;SDS011;3606;52.930;8.644;2023-05-07T05:42:58;11.40;;;9.40;;
7128;SDS011;3606;52.930;8.644;2023-05-07T05:45:24;11.93;;;9.63;;
7128;SDS011;3606;52.930;8.644;2023-05-07T05:47:50;14.40;;;11.00;;
7128;SDS011;3606;52.930;8.644;2023-05-07T05:50:15;16.47;;;10.67;;
7128;SDS011;3606;52.930;8.644;2023-05-07T05:52:41;13.23;;;9.93;;
7128;SDS011;3606;52.930;8.644;2023-05-07T05:55:07;12.90;;;10.33;;
7128;SDS011;3606;52.930;8.644;2023-05-07T05:57:33;16.13;;;9.33;;
7128;SDS011;3606;52.930;8.644;2023-05-07T05:59:59;11.80;;;9.77;;
7128;SDS011;3606;52.930;8.644;2023-05-07T06:02:25;12.63;;;9.67;;
7128;SDS011;3606;52.930;8.644;2023-05-07T06:04:51;12.00;;;9.53;;
7128;SDS011;3606;52.930;8.644;2023-05-07T06:07:16;13.23;;;9.93;;
7128;SDS011;3606;52.930;8.644;2023-05-07T06:09:42;13.47;;;9.57;;
7128;SDS011;3606;52.930;8.644;2023-05-07T06:12:07;16.37;;;10.63;;
7128;SDS011;3606;52.930;8.644;2023-05-07T06:14:33;13.40;;;9.63;;
7128;SDS011;3606;52.930;8.644;2023-05-07T06:16:58;11.67;;;8.27;;
7128;SDS011;3606;52.930;8.644;2023-05-07T06:19:24;10.93;;;9.10;;
7128;SDS011;3606;52.930;8.644;2023-05-07T06:21:51;13.87;;;9.27;;
7128;SDS011;3606;52.930;8.644;2023-05-07T06:24:17;13.57;;;9.53;;
7128;SDS011;3606;52.930;8.644;2023-05-07T06:26:42;12.77;;;9.20;;
7128;SDS011;3606;52.930;8.644;2023-05-07T06:29:08;11.53;;;9.00;;
7128;SDS011;3606;52.930;8.644;2023-05-07T06:31:33;11.90;;;8.93;;
7128;SDS011;3606;52.930;8.644;2023-05-07T06:33:59;12.43;;;9.17;;
7128;SDS011;3606;52.930;8.644;2023-05-07T06:36:27;11.37;;;8.60;;
7128;SDS011;3606;52.930;8.644;2023-05-07T06:38:52;11.93;;;8.70;;
7128;SDS011;3606;52.930;8.644;2023-05-07T06:41:18;12.57;;;8.27;;
7128;SDS011;3606;52.930;8.644;2023-05-07T06:43:43;10.03;;;8.00;;
7128;SDS011;3606;52.930;8.644;2023-05-07T06:46:09;11.67;;;9.23;;
7128;SDS011;3606;52.930;8.644;2023-05-07T06:48:35;13.00;;;8.63;;
7128;SDS011;3606;52.930;8.644;2023-05-07T06:51:00;10.00;;;7.83;;
7128;SDS011;3606;52.930;8.644;2023-05-07T06:53:26;12.90;;;8.97;;
7128;SDS011;3606;52.930;8.644;2023-05-07T06:55:53;12.10;;;8.23;;
7128;SDS011;3606;52.930;8.644;2023-05-07T06:58:19;8.53;;;7.60;;
7128;SDS011;3606;52.930;8.644;2023-05-07T07:00:44;12.17;;;8.40;;
7128;SDS011;3606;52.930;8.644;2023-05-07T07:03:10;12.87;;;8.73;;
7128;SDS011;3606;52.930;8.644;2023-05-07T07:05:36;13.30;;;8.30;;
7128;SDS011;3606;52.930;8.644;2023-05-07T07:08:02;10.47;;;8.23;;
7128;SDS011;3606;52.930;8.644;2023-05-07T07:10:27;11.23;;;7.93;;
7128;SDS011;3606;52.930;8.644;2023-05-07T07:12:53;9.50;;;8.20;;
7128;SDS011;3606;52.930;8.644;2023-05-07T07:15:19;10.40;;;7.97;;
7128;SDS011;3606;52.930;8.644;2023-05-07T07:17:45;12.70;;;8.43;;
7128;SDS011;3606;52.930;8.644;2023-05-07T07:20:11;11.10;;;7.50;;
7128;SDS011;3606;52.930;8.644;2023-05-07T07:22:37;11.83;;;7.93;;
7128;SDS011;3606;52.930;8.644;2023-05-07T07:25:02;12.07;;;8.27;;
7128;SDS011;3606;52.930;8.644;2023-05-07T07:27:28;8.80;;;7.03;;
7128;SDS011;3606;52.930;8.644;2023-05-07T07:29:54;9.03;;;7.80;;
7128;SDS011;3606;52.930;8.644;2023-05-07T07:32:20;10.87;;;8.33;;
7128;SDS011;3606;52.930;8.644;2023-05-07T07:34:45;9.50;;;8.00;;
7128;SDS011;3606;52.930;8.644;2023-05-07T07:37:11;10.50;;;7.03;;
7128;SDS011;3606;52.930;8.644;2023-05-07T07:39:36;11.67;;;8.50;;
7128;SDS011;3606;52.930;8.644;2023-05-07T07:42:06;8.97;;;7.93;;
7128;SDS011;3606;52.930;8.644;2023-05-07T07:44:31;10.10;;;7.90;;
7128;SDS011;3606;52.930;8.644;2023-05-07T07:46:57;8.97;;;7.80;;
7128;SDS011;3606;52.930;8.644;2023-05-07T07:49:22;10.00;;;7.63;;
7128;SDS011;3606;52.930;8.644;2023-05-07T07:51:48;9.40;;;7.43;;
7128;SDS011;3606;52.930;8.644;2023-05-07T07:54:13;9.87;;;7.60;;
7128;SDS011;3606;52.930;8.644;2023-05-07T07:56:39;8.67;;;7.37;;
7128;SDS011;3606;52.930;8.644;2023-05-07T07:59:04;8.87;;;7.70;;
7128;SDS011;3606;52.930;8.644;2023-05-07T08:01:30;9.27;;;7.40;;
7128;SDS011;3606;52.930;8.644;2023-05-07T08:03:56;9.50;;;8.13;;
7128;SDS011;3606;52.930;8.644;2023-05-07T08:06:25;8.50;;;7.60;;
7128;SDS011;3606;52.930;8.644;2023-05-07T08:08:51;9.63;;;7.60;;
7128;SDS011;3606;52.930;8.644;2023-05-07T08:11:16;13.20;;;8.20;;
7128;SDS011;3606;52.930;8.644;2023-05-07T08:13:42;9.93;;;8.00;;
7128;SDS011;3606;52.930;8.644;2023-05-07T08:16:08;10.20;;;8.47;;
7128;SDS011;3606;52.930;8.644;2023-05-07T08:18:34;11.53;;;8.03;;
7128;SDS011;3606;52.930;8.644;2023-05-07T08:21:00;9.83;;;8.10;;
7128;SDS011;3606;52.930;8.644;2023-05-07T08:23:26;9.87;;;7.90;;
7128;SDS011;3606;52.930;8.644;2023-05-07T08:25:53;10.73;;;8.13;;
7128;SDS011;3606;52.930;8.644;2023-05-07T08:28:18;10.80;;;8.03;;
7128;SDS011;3606;52.930;8.644;2023-05-07T08:30:46;8.93;;;7.30;;
7128;SDS011;3606;52.930;8.644;2023-05-07T08:33:11;9.43;;;8.17;;
7128;SDS011;3606;52.930;8.644;2023-05-07T08:35:37;9.77;;;7.67;;
7128;SDS011;3606;52.930;8.644;2023-05-07T08:38:03;9.07;;;8.00;;
7128;SDS011;3606;52.930;8.644;2023-05-07T08:40:28;12.07;;;7.83;;
7128;SDS011;3606;52.930;8.644;2023-05-07T08:42:56;8.57;;;7.30;;
7128;SDS011;3606;52.930;8.644;2023-05-07T08:45:23;11.03;;;7.23;;
7128;SDS011;3606;52.930;8.644;2023-05-07T08:47:50;8.47;;;6.07;;
7128;SDS011;3606;52.930;8.644;2023-05-07T08:50:20;8.20;;;6.47;;
7128;SDS011;3606;52.930;8.644;2023-05-07T08:52:47;6.57;;;5.87;;
7128;SDS011;3606;52.930;8.644;2023-05-07T08:55:12;7.77;;;6.00;;
7128;SDS011;3606;52.930;8.644;2023-05-07T08:57:40;7.47;;;6.60;;
7128;SDS011;3606;52.930;8.644;2023-05-07T09:00:05;8.83;;;6.43;;
7128;SDS011;3606;52.930;8.644;2023-05-07T09:02:32;7.43;;;6.30;;
7128;SDS011;3606;52.930;8.644;2023-05-07T09:04:59;8.33;;;6.43;;
7128;SDS011;3606;52.930;8.644;2023-05-07T09:07:25;6.73;;;5.97;;
7128;SDS011;3606;52.930;8.644;2023-05-07T09:09:51;7.60;;;6.60;;
7128;SDS011;3606;52.930;8.644;2023-05-07T09:12:17;8.20;;;6.40;;
7128;SDS011;3606;52.930;8.644;2023-05-07T09:14:45;7.20;;;5.73;;
7128;SDS011;3606;52.930;8.644;2023-05-07T09:17:11;6.97;;;6.23;;
7128;SDS011;3606;52.930;8.644;2023-05-07T09:19:36;7.83;;;6.37;;
7128;SDS011;3606;52.930;8.644;2023-05-07T09:22:02;6.80;;;6.10;;
7128;SDS011;3606;52.930;8.644;2023-05-07T09:24:29;7.90;;;5.97;;
7128;SDS011;3606;52.930;8.644;2023-05-07T09:26:59;9.23;;;5.73;;
7128;SDS011;3606;52.930;8.644;2023-05-07T09:29:26;8.50;;;6.33;;
7128;SDS011;3606;52.930;8.644;2023-05-07T09:31:54;7.90;;;6.00;;
7128;SDS011;3606;52.930;8.644;2023-05-07T09:34:20;6.90;;;6.03;;
7128;SDS011;3606;52.930;8.644;2023-05-07T09:36:45;7.30;;;6.17;;
7128;SDS011;3606;52.930;8.644;2023-05-07T09:39:12;8.27;;;6.10;;
7128;SDS011;3606;52.930;8.644;2023-05-07T09:41:44;7.50;;;5.73;;
7128;SDS011;3606;52.930;8.644;2023-05-07T09:44:14;7.87;;;5.73;;
7128;SDS011;3606;52.930;8.644;2023-05-07T09:46:41;8.57;;;6.23;;
7128;SDS011;3606;52.930;8.644;2023-05-07T09:49:11;6.97;;;6.27;;
7128;SDS011;3606;52.930;8.644;2023-05-07T09:51:48;9.47;;;6.57;;
7128;SDS011;3606;52.930;8.644;2023-05-07T09:54:15;7.03;;;6.20;;
7128;SDS011;3606;52.930;8.644;2023-05-07T09:56:45;7.13;;;5.60;;
7128;SDS011;3606;52.930;8.644;2023-05-07T09:59:12;6.80;;;6.17;;
7128;SDS011;3606;52.930;8.644;2023-05-07T10:01:40;7.73;;;6.27;;
7128;SDS011;3606;52.930;8.644;2023-05-07T10:04:07;7.70;;;6.47;;
7128;SDS011;3606;52.930;8.644;2023-05-07T10:06:35;7.33;;;6.07;;
7128;SDS011;3606;52.930;8.644;2023-05-07T10:09:02;6.53;;;5.93;;
7128;SDS011;3606;52.930;8.644;2023-05-07T10:11:31;7.70;;;5.57;;
7128;SDS011;3606;52.930;8.644;2023-05-07T10:13:58;7.67;;;6.40;;
7128;SDS011;3606;52.930;8.644;2023-05-07T10:16:26;7.10;;;6.40;;
7128;SDS011;3606;52.930;8.644;2023-05-07T10:18:55;6.63;;;5.87;;
7128;SDS011;3606;52.930;8.644;2023-05-07T10:21:22;9.87;;;6.43;;
7128;SDS011;3606;52.930;8.644;2023-05-07T10:23:49;6.77;;;6.07;;
7128;SDS011;3606;52.930;8.644;2023-05-07T10:26:17;6.87;;;5.90;;
7128;SDS011;3606;52.930;8.644;2023-05-07T10:28:46;6.67;;;5.80;;
7128;SDS011;3606;52.930;8.644;2023-05-07T10:34:07;7.00;;;5.90;;
7128;SDS011;3606;52.930;8.644;2023-05-07T10:36:38;7.97;;;6.77;;
7128;SDS011;3606;52.930;8.644;2023-05-07T10:39:04;6.30;;;5.47;;
7128;SDS011;3606;52.930;8.644;2023-05-07T10:41:31;7.37;;;6.20;;
7128;SDS011;3606;52.930;8.644;2023-05-07T10:43:56;6.57;;;5.77;;
7128;SDS011;3606;52.930;8.644;2023-05-07T10:46:26;6.87;;;6.17;;
7128;SDS011;3606;52.930;8.644;2023-05-07T10:51:31;6.47;;;5.87;;
7128;SDS011;3606;52.930;8.644;2023-05-07T10:56:35;7.03;;;6.00;;
7128;SDS011;3606;52.930;8.644;2023-05-07T11:01:53;7.20;;;6.03;;
7128;SDS011;3606;52.930;8.644;2023-05-07T11:04:23;7.47;;;6.13;;
7128;SDS011;3606;52.930;8.644;2023-05-07T11:12:16;6.60;;;5.90;;
7128;SDS011;3606;52.930;8.644;2023-05-07T11:14:43;7.00;;;6.30;;
7128;SDS011;3606;52.930;8.644;2023-05-07T11:17:10;8.93;;;6.60;;
7128;SDS011;3606;52.930;8.644;2023-05-07T11:19:47;6.30;;;5.47;;
7128;SDS011;3606;52.930;8.644;2023-05-07T11:22:35;5.97;;;5.37;;
7128;SDS011;3606;52.930;8.644;2023-05-07T11:25:00;7.60;;;6.23;;
7128;SDS011;3606;52.930;8.644;2023-05-07T11:27:30;7.80;;;6.37;;
7128;SDS011;3606;52.930;8.644;2023-05-07T11:29:56;9.10;;;5.87;;
7128;SDS011;3606;52.930;8.644;2023-05-07T11:32:29;8.83;;;6.53;;
7128;SDS011;3606;52.930;8.644;2023-05-07T11:34:56;7.43;;;6.00;;
7128;SDS011;3606;52.930;8.644;2023-05-07T11:37:23;6.77;;;6.07;;
7128;SDS011;3606;52.930;8.644;2023-05-07T11:39:50;6.87;;;6.17;;
7128;SDS011;3606;52.930;8.644;2023-05-07T11:42:33;7.00;;;5.80;;
7128;SDS011;3606;52.930;8.644;2023-05-07T11:45:00;8.23;;;6.50;;
7128;SDS011;3606;52.930;8.644;2023-05-07T11:47:29;7.63;;;6.90;;
7128;SDS011;3606;52.930;8.644;2023-05-07T11:49:55;7.73;;;5.97;;
7128;SDS011;3606;52.930;8.644;2023-05-07T11:52:21;7.40;;;6.00;;
7128;SDS011;3606;52.930;8.644;2023-05-07T11:54:58;7.80;;;6.87;;
7128;SDS011;3606;52.930;8.644;2023-05-07T11:57:25;8.00;;;6.17;;
7128;SDS011;3606;52.930;8.644;2023-05-07T11:59:54;8.13;;;6.07;;
7128;SDS011;3606;52.930;8.644;2023-05-07T12:02:21;7.93;;;6.80;;
7128;SDS011;3606;52.930;8.644;2023-05-07T12:04:46;8.80;;;6.63;;
7128;SDS011;3606;52.930;8.644;2023-05-07T12:07:12;9.03;;;6.37;;
7128;SDS011;3606;52.930;8.644;2023-05-07T12:09:43;7.93;;;6.13;;
7128;SDS011;3606;52.930;8.644;2023-05-07T12:12:09;8.13;;;6.63;;
7128;SDS011;3606;52.930;8.644;2023-05-07T12:14:39;8.70;;;6.47;;
7128;SDS011;3606;52.930;8.644;2023-05-07T12:17:05;7.33;;;6.20;;
7128;SDS011;3606;52.930;8.644;2023-05-07T12:19:34;8.67;;;6.47;;
7128;SDS011;3606;52.930;8.644;2023-05-07T12:22:02;8.73;;;6.33;;
7128;SDS011;3606;52.930;8.644;2023-05-07T12:24:28;6.37;;;5.77;;
7128;SDS011;3606;52.930;8.644;2023-05-07T12:26:54;6.30;;;5.70;;
7128;SDS011;3606;52.930;8.644;2023-05-07T12:29:23;6.03;;;5.43;;
7128;SDS011;3606;52.930;8.644;2023-05-07T12:31:49;6.60;;;5.20;;
7128;SDS011;3606;52.930;8.644;2023-05-07T12:34:15;6.27;;;4.73;;
7128;SDS011;3606;52.930;8.644;2023-05-07T12:36:41;6.90;;;5.07;;
7128;SDS011;3606;52.930;8.644;2023-05-07T12:39:07;6.37;;;4.73;;
7128;SDS011;3606;52.930;8.644;2023-05-07T12:41:52;5.23;;;4.53;;
7128;SDS011;3606;52.930;8.644;2023-05-07T12:44:19;5.40;;;4.63;;
7128;SDS011;3606;52.930;8.644;2023-05-07T12:46:47;5.43;;;4.93;;
7128;SDS011;3606;52.930;8.644;2023-05-07T12:49:13;4.87;;;4.37;;
7128;SDS011;3606;52.930;8.644;2023-05-07T12:51:38;5.03;;;4.53;;
7128;SDS011;3606;52.930;8.644;2023-05-07T12:54:04;5.20;;;4.50;;
7128;SDS011;3606;52.930;8.644;2023-05-07T12:56:35;9.17;;;4.40;;
7128;SDS011;3606;52.930;8.644;2023-05-07T12:59:01;4.70;;;4.20;;
7128;SDS011;3606;52.930;8.644;2023-05-07T13:01:30;6.20;;;5.20;;
7128;SDS011;3606;52.930;8.644;2023-05-07T13:03:57;5.70;;;4.80;;
7128;SDS011;3606;52.930;8.644;2023-05-07T13:06:27;5.17;;;4.30;;
7128;SDS011;3606;52.930;8.644;2023-05-07T13:08:54;5.33;;;4.83;;
7128;SDS011;3606;52.930;8.644;2023-05-07T13:11:20;5.13;;;4.57;;
7128;SDS011;3606;52.930;8.644;2023-05-07T13:13:46;5.77;;;4.40;;
7128;SDS011;3606;52.930;8.644;2023-05-07T13:16:11;4.40;;;4.00;;
7128;SDS011;3606;52.930;8.644;2023-05-07T13:18:38;4.60;;;4.20;;
7128;SDS011;3606;52.930;8.644;2023-05-07T13:21:04;5.10;;;4.60;;
7128;SDS011;3606;52.930;8.644;2023-05-07T13:23:29;5.00;;;4.10;;
7128;SDS011;3606;52.930;8.644;2023-05-07T13:25:55;4.40;;;3.93;;
7128;SDS011;3606;52.930;8.644;2023-05-07T13:28:21;5.77;;;4.63;;
7128;SDS011;3606;52.930;8.644;2023-05-07T13:30:51;5.63;;;4.90;;
7128;SDS011;3606;52.930;8.644;2023-05-07T13:33:17;5.70;;;5.13;;
7128;SDS011;3606;52.930;8.644;2023-05-07T13:35:43;4.80;;;4.30;;
7128;SDS011;3606;52.930;8.644;2023-05-07T13:38:09;6.77;;;4.23;;
7128;SDS011;3606;52.930;8.644;2023-05-07T13:40:35;8.30;;;4.70;;
7128;SDS011;3606;52.930;8.644;2023-05-07T13:43:01;4.77;;;4.27;;
7128;SDS011;3606;52.930;8.644;2023-05-07T13:45:27;4.60;;;4.20;;
7128;SDS011;3606;52.930;8.644;2023-05-07T13:47:54;5.30;;;4.57;;
7128;SDS011;3606;52.930;8.644;2023-05-07T13:50:20;5.17;;;4.67;;
7128;SDS011;3606;52.930;8.644;2023-05-07T13:52:45;8.30;;;4.33;;
7128;SDS011;3606;52.930;8.644;2023-05-07T13:55:16;4.87;;;4.27;;
7128;SDS011;3606;52.930;8.644;2023-05-07T13:57:42;4.30;;;4.00;;
7128;SDS011;3606;52.930;8.644;2023-05-07T14:00:08;4.70;;;4.30;;
7128;SDS011;3606;52.930;8.644;2023-05-07T14:02:34;5.63;;;4.33;;
7128;SDS011;3606;52.930;8.644;2023-05-07T14:05:00;4.60;;;4.20;;
7128;SDS011;3606;52.930;8.644;2023-05-07T14:07:25;8.10;;;4.50;;
7128;SDS011;3606;52.930;8.644;2023-05-07T14:09:51;4.33;;;3.93;;
7128;SDS011;3606;52.930;8.644;2023-05-07T14:12:17;5.27;;;4.40;;
7128;SDS011;3606;52.930;8.644;2023-05-07T14:14:42;5.23;;;4.47;;
7128;SDS011;3606;52.930;8.644;2023-05-07T14:17:08;4.87;;;4.40;;
7128;SDS011;3606;52.930;8.644;2023-05-07T14:19:33;6.77;;;4.63;;
7128;SDS011;3606;52.930;8.644;2023-05-07T14:21:59;4.90;;;4.23;;
7128;SDS011;3606;52.930;8.644;2023-05-07T14:24:24;5.27;;;4.73;;
7128;SDS011;3606;52.930;8.644;2023-05-07T14:26:50;5.00;;;4.40;;
7128;SDS011;3606;52.930;8.644;2023-05-07T14:29:16;4.63;;;4.23;;
7128;SDS011;3606;52.930;8.644;2023-05-07T14:31:44;5.53;;;4.67;;
7128;SDS011;3606;52.930;8.644;2023-05-07T14:34:10;5.20;;;4.70;;
7128;SDS011;3606;52.930;8.644;2023-05-07T14:36:35;5.87;;;4.30;;
7128;SDS011;3606;52.930;8.644;2023-05-07T14:39:01;5.53;;;4.73;;
7128;SDS011;3606;52.930;8.644;2023-05-07T14:41:27;4.50;;;4.10;;
7128;SDS011;3606;52.930;8.644;2023-05-07T14:43:53;6.43;;;4.83;;
7128;SDS011;3606;52.930;8.644;2023-05-07T14:46:18;7.87;;;4.70;;
7128;SDS011;3606;52.930;8.644;2023-05-07T14:48:44;6.43;;;4.50;;
7128;SDS011;3606;52.930;8.644;2023-05-07T14:51:13;4.77;;;4.37;;
7128;SDS011;3606;52.930;8.644;2023-05-07T14:53:40;5.03;;;4.57;;
7128;SDS011;3606;52.930;8.644;2023-05-07T14:56:06;5.50;;;4.97;;
7128;SDS011;3606;52.930;8.644;2023-05-07T14:58:33;5.57;;;4.93;;
7128;SDS011;3606;52.930;8.644;2023-05-07T15:00:59;4.73;;;4.33;;
7128;SDS011;3606;52.930;8.644;2023-05-07T15:03:25;7.47;;;4.73;;
7128;SDS011;3606;52.930;8.644;2023-05-07T15:05:51;4.63;;;4.23;;
7128;SDS011;3606;52.930;8.644;2023-05-07T15:08:17;5.30;;;4.80;;
7128;SDS011;3606;52.930;8.644;2023-05-07T15:10:43;5.27;;;4.77;;
7128;SDS011;3606;52.930;8.644;2023-05-07T15:13:09;6.80;;;4.77;;
7128;SDS011;3606;52.930;8.644;2023-05-07T15:15:36;7.67;;;4.83;;